sensor_id;sensor_type;location;lat;lon;timestamp;pressure;altitude;pressure_sealevel;temperature;humidity
71601;BME280;59446;52.192;4.628;2023-03-19T00:01:20;101060.56;;;18.31;54.89
71601;BME280;59446;52.192;4.628;2023-03-19T00:03:46;101065.00;;;18.31;54.45
71601;BME280;59446;52.192;4.628;2023-03-19T00:06:12;101063.22;;;18.31;54.61
71601;BME280;59446;52.192;4.628;2023-03-19T00:08:37;101068.56;;;18.30;54.74
71601;BME280;59446;52.192;4.628;2023-03-19T00:11:11;101066.97;;;18.27;54.69
71601;BME280;59446;52.192;4.628;2023-03-19T00:13:38;101074.03;;;18.27;54.88
71601;BME280;59446;52.192;4.628;2023-03-19T00:16:04;101070.53;;;18.26;54.55
71601;BME280;59446;52.192;4.628;2023-03-19T00:18:30;101074.97;;;18.26;54.73
71601;BME280;59446;52.192;4.628;2023-03-19T00:20:56;101078.47;;;18.26;54.71
71601;BME280;59446;52.192;4.628;2023-03-19T00:23:21;101085.59;;;18.24;54.97
71601;BME280;59446;52.192;4.628;2023-03-19T00:25:47;101091.81;;;18.23;55.00
71601;BME280;59446;52.192;4.628;2023-03-19T00:28:12;101093.59;;;18.23;54.84
71601;BME280;59446;52.192;4.628;2023-03-19T00:30:38;101093.59;;;18.23;54.77
71601;BME280;59446;52.192;4.628;2023-03-19T00:33:04;101088.31;;;18.23;54.87
71601;BME280;59446;52.192;4.628;2023-03-19T00:35:29;101083.06;;;18.23;54.81
71601;BME280;59446;52.192;4.628;2023-03-19T00:37:55;101090.13;;;18.22;54.95
71601;BME280;59446;52.192;4.628;2023-03-19T00:40:20;101093.69;;;18.21;54.98
71601;BME280;59446;52.192;4.628;2023-03-19T00:42:46;101094.63;;;18.20;54.80
71601;BME280;59446;52.192;4.628;2023-03-19T00:45:11;101097.44;;;18.17;54.95
71601;BME280;59446;52.192;4.628;2023-03-19T00:47:37;101103.56;;;18.17;55.01
71601;BME280;59446;52.192;4.628;2023-03-19T00:50:04;101096.59;;;18.16;54.85
71601;BME280;59446;52.192;4.628;2023-03-19T00:52:29;101093.19;;;18.14;54.83
71601;BME280;59446;52.192;4.628;2023-03-19T00:54:55;101092.31;;;18.14;54.92
71601;BME280;59446;52.192;4.628;2023-03-19T00:57:21;101100.22;;;18.14;54.98
71601;BME280;59446;52.192;4.628;2023-03-19T00:59:47;101096.69;;;18.15;54.94
71601;BME280;59446;52.192;4.628;2023-03-19T01:02:12;101099.38;;;18.13;54.87
71601;BME280;59446;52.192;4.628;2023-03-19T01:04:37;101102.09;;;18.12;55.07
71601;BME280;59446;52.192;4.628;2023-03-19T01:07:03;101101.09;;;18.14;54.80
71601;BME280;59446;52.192;4.628;2023-03-19T01:09:28;101101.16;;;18.13;55.04
71601;BME280;59446;52.192;4.628;2023-03-19T01:11:54;101103.13;;;18.09;55.18
71601;BME280;59446;52.192;4.628;2023-03-19T01:14:20;101102.19;;;18.10;54.99
71601;BME280;59446;52.192;4.628;2023-03-19T01:16:46;101101.34;;;18.10;54.85
71601;BME280;59446;52.192;4.628;2023-03-19T01:19:11;101105.75;;;18.09;54.97
71601;BME280;59446;52.192;4.628;2023-03-19T01:21:37;101105.84;;;18.08;54.87
71601;BME280;59446;52.192;4.628;2023-03-19T01:24:02;101112.91;;;18.07;55.21
71601;BME280;59446;52.192;4.628;2023-03-19T01:26:28;101113.84;;;18.06;54.99
71601;BME280;59446;52.192;4.628;2023-03-19T01:28:53;101107.63;;;18.07;54.89
71601;BME280;59446;52.192;4.628;2023-03-19T01:31:19;101111.19;;;18.06;54.98
71601;BME280;59446;52.192;4.628;2023-03-19T01:33:44;101109.59;;;18.04;55.04
71601;BME280;59446;52.192;4.628;2023-03-19T01:36:10;101112.13;;;18.05;54.97
71601;BME280;59446;52.192;4.628;2023-03-19T01:38:36;101119.28;;;18.03;55.22
71601;BME280;59446;52.192;4.628;2023-03-19T01:41:01;101107.88;;;18.03;55.06
71601;BME280;59446;52.192;4.628;2023-03-19T01:43:29;101110.59;;;18.01;55.16
71601;BME280;59446;52.192;4.628;2023-03-19T01:46:15;101110.69;;;18.00;55.16
71601;BME280;59446;52.192;4.628;2023-03-19T01:48:47;101112.56;;;17.98;55.18
71601;BME280;59446;52.192;4.628;2023-03-19T01:51:19;101110.69;;;18.00;55.43
71601;BME280;59446;52.192;4.628;2023-03-19T01:53:52;101108.06;;;18.00;55.16
71601;BME280;59446;52.192;4.628;2023-03-19T01:56:22;101112.56;;;17.98;55.19
71601;BME280;59446;52.192;4.628;2023-03-19T01:58:51;101113.41;;;17.98;55.02
71601;BME280;59446;52.192;4.628;2023-03-19T02:01:18;101109.94;;;17.98;55.10
71601;BME280;59446;52.192;4.628;2023-03-19T02:03:45;101102.97;;;17.97;55.06
71601;BME280;59446;52.192;4.628;2023-03-19T02:06:11;101112.75;;;17.95;54.65
71601;BME280;59446;52.192;4.628;2023-03-19T02:08:37;101117.06;;;17.96;55.04
71601;BME280;59446;52.192;4.628;2023-03-19T02:11:04;101112.75;;;17.95;55.19
71601;BME280;59446;52.192;4.628;2023-03-19T02:13:29;101120.72;;;17.93;55.02
71601;BME280;59446;52.192;4.628;2023-03-19T02:15:55;101120.81;;;17.92;55.27
71601;BME280;59446;52.192;4.628;2023-03-19T02:18:21;101122.50;;;17.93;55.17
71601;BME280;59446;52.192;4.628;2023-03-19T02:21:10;101109.41;;;17.91;55.32
71601;BME280;59446;52.192;4.628;2023-03-19T02:23:46;101119.94;;;17.91;55.15
71601;BME280;59446;52.192;4.628;2023-03-19T02:26:15;101118.22;;;17.90;55.17
71601;BME280;59446;52.192;4.628;2023-03-19T02:28:45;101118.22;;;17.90;55.09
71601;BME280;59446;52.192;4.628;2023-03-19T02:31:12;101122.66;;;17.89;55.21
71601;BME280;59446;52.192;4.628;2023-03-19T02:33:38;101118.31;;;17.88;54.93
71601;BME280;59446;52.192;4.628;2023-03-19T02:36:05;101124.44;;;17.89;54.97
71601;BME280;59446;52.192;4.628;2023-03-19T02:38:33;101118.31;;;17.88;55.02
71601;BME280;59446;52.192;4.628;2023-03-19T02:41:01;101119.34;;;17.86;55.08
71601;BME280;59446;52.192;4.628;2023-03-19T02:43:30;101116.72;;;17.86;55.01
71601;BME280;59446;52.192;4.628;2023-03-19T02:45:56;101116.78;;;17.84;55.13
71601;BME280;59446;52.192;4.628;2023-03-19T02:48:22;101123.94;;;17.82;55.01
71601;BME280;59446;52.192;4.628;2023-03-19T02:50:48;101124.78;;;17.83;55.15
71601;BME280;59446;52.192;4.628;2023-03-19T02:53:14;101128.34;;;17.82;55.32
71601;BME280;59446;52.192;4.628;2023-03-19T02:55:40;101127.50;;;17.81;55.23
71601;BME280;59446;52.192;4.628;2023-03-19T02:58:06;101124.00;;;17.81;55.23
71601;BME280;59446;52.192;4.628;2023-03-19T03:00:32;101122.31;;;17.80;55.37
71601;BME280;59446;52.192;4.628;2023-03-19T03:02:58;101120.53;;;17.80;55.17
71601;BME280;59446;52.192;4.628;2023-03-19T03:05:24;101117.22;;;17.77;55.20
71601;BME280;59446;52.192;4.628;2023-03-19T03:07:49;101124.94;;;17.80;55.22
71601;BME280;59446;52.192;4.628;2023-03-19T03:10:15;101120.63;;;17.79;55.35
71601;BME280;59446;52.192;4.628;2023-03-19T03:12:41;101127.66;;;17.78;55.14
71601;BME280;59446;52.192;4.628;2023-03-19T03:15:07;101127.75;;;17.77;55.13
71601;BME280;59446;52.192;4.628;2023-03-19T03:17:35;101125.19;;;17.75;55.09
71601;BME280;59446;52.192;4.628;2023-03-19T03:20:01;101123.41;;;17.76;55.18
71601;BME280;59446;52.192;4.628;2023-03-19T03:22:26;101127.84;;;17.75;55.32
71601;BME280;59446;52.192;4.628;2023-03-19T03:24:52;101122.75;;;17.72;55.33
71601;BME280;59446;52.192;4.628;2023-03-19T03:27:17;101128.84;;;17.73;55.12
71601;BME280;59446;52.192;4.628;2023-03-19T03:29:42;101128.78;;;17.74;55.23
71601;BME280;59446;52.192;4.628;2023-03-19T03:32:08;101126.13;;;17.74;55.06
71601;BME280;59446;52.192;4.628;2023-03-19T03:34:36;101122.75;;;17.72;55.16
71601;BME280;59446;52.192;4.628;2023-03-19T03:37:01;101125.47;;;17.71;55.26
71601;BME280;59446;52.192;4.628;2023-03-19T03:39:27;101120.19;;;17.71;55.27
71601;BME280;59446;52.192;4.628;2023-03-19T03:41:52;101117.47;;;17.72;55.04
71601;BME280;59446;52.192;4.628;2023-03-19T03:44:18;101115.78;;;17.71;55.16
71601;BME280;59446;52.192;4.628;2023-03-19T03:46:43;101120.28;;;17.69;55.10
71601;BME280;59446;52.192;4.628;2023-03-19T03:49:08;101126.44;;;17.68;55.18
71601;BME280;59446;52.192;4.628;2023-03-19T03:51:34;101127.28;;;17.69;55.10
71601;BME280;59446;52.192;4.628;2023-03-19T03:53:59;101125.59;;;17.68;55.36
71601;BME280;59446;52.192;4.628;2023-03-19T03:56:25;101124.75;;;17.67;55.23
71601;BME280;59446;52.192;4.628;2023-03-19T03:58:51;101129.16;;;17.67;54.84
71601;BME280;59446;52.192;4.628;2023-03-19T04:01:17;101127.53;;;17.64;55.30
71601;BME280;59446;52.192;4.628;2023-03-19T04:03:43;101132.72;;;17.66;54.97
71601;BME280;59446;52.192;4.628;2023-03-19T04:06:14;101128.47;;;17.63;55.11
71601;BME280;59446;52.192;4.628;2023-03-19T04:08:41;101132.91;;;17.63;55.11
71601;BME280;59446;52.192;4.628;2023-03-19T04:11:07;101138.16;;;17.63;55.09
71601;BME280;59446;52.192;4.628;2023-03-19T04:13:33;101136.47;;;17.62;55.17
71601;BME280;59446;52.192;4.628;2023-03-19T04:16:03;101138.16;;;17.63;55.08
71601;BME280;59446;52.192;4.628;2023-03-19T04:18:28;101151.41;;;17.61;55.25
71601;BME280;59446;52.192;4.628;2023-03-19T04:20:54;101151.41;;;17.61;55.22
71601;BME280;59446;52.192;4.628;2023-03-19T04:23:19;101153.03;;;17.64;55.11
71601;BME280;59446;52.192;4.628;2023-03-19T04:25:45;101153.19;;;17.61;55.03
71601;BME280;59446;52.192;4.628;2023-03-19T04:28:10;101154.91;;;17.62;55.37
71601;BME280;59446;52.192;4.628;2023-03-19T04:30:36;101152.34;;;17.60;55.46
71601;BME280;59446;52.192;4.628;2023-03-19T04:33:02;101150.72;;;17.57;55.24
71601;BME280;59446;52.192;4.628;2023-03-19T04:35:29;101146.31;;;17.58;55.21
71601;BME280;59446;52.192;4.628;2023-03-19T04:37:54;101149.88;;;17.57;55.21
71601;BME280;59446;52.192;4.628;2023-03-19T04:40:19;101156.75;;;17.60;54.91
71601;BME280;59446;52.192;4.628;2023-03-19T04:42:45;101161.19;;;17.59;55.14
71601;BME280;59446;52.192;4.628;2023-03-19T04:45:10;101169.16;;;17.57;54.96
71601;BME280;59446;52.192;4.628;2023-03-19T04:47:36;101164.91;;;17.55;55.24
71601;BME280;59446;52.192;4.628;2023-03-19T04:50:01;101183.25;;;17.56;55.06
71601;BME280;59446;52.192;4.628;2023-03-19T04:52:27;101171.97;;;17.54;55.28
71601;BME280;59446;52.192;4.628;2023-03-19T04:54:54;101170.00;;;17.58;55.23
71601;BME280;59446;52.192;4.628;2023-03-19T04:57:19;101169.25;;;17.56;54.94
71601;BME280;59446;52.192;4.628;2023-03-19T04:59:45;101170.19;;;17.55;54.91
71601;BME280;59446;52.192;4.628;2023-03-19T05:02:11;101170.19;;;17.55;54.99
71601;BME280;59446;52.192;4.628;2023-03-19T05:04:37;101166.53;;;17.57;55.09
71601;BME280;59446;52.192;4.628;2023-03-19T05:07:02;101170.19;;;17.55;54.56
71601;BME280;59446;52.192;4.628;2023-03-19T05:09:28;101173.78;;;17.52;54.90
71601;BME280;59446;52.192;4.628;2023-03-19T05:11:55;101181.78;;;17.51;55.07
71601;BME280;59446;52.192;4.628;2023-03-19T05:14:21;101184.41;;;17.51;54.99
71601;BME280;59446;52.192;4.628;2023-03-19T05:16:47;101189.66;;;17.51;55.14
71601;BME280;59446;52.192;4.628;2023-03-19T05:19:12;101183.63;;;17.49;55.25
71601;BME280;59446;52.192;4.628;2023-03-19T05:21:38;101181.00;;;17.49;55.08
71601;BME280;59446;52.192;4.628;2023-03-19T05:24:05;101188.75;;;17.52;55.11
71601;BME280;59446;52.192;4.628;2023-03-19T05:26:30;101192.38;;;17.49;54.87
71601;BME280;59446;52.192;4.628;2023-03-19T05:28:56;101196.81;;;17.49;54.98
71601;BME280;59446;52.192;4.628;2023-03-19T05:31:22;101207.25;;;17.50;55.20
71601;BME280;59446;52.192;4.628;2023-03-19T05:33:47;101211.84;;;17.47;55.13
71601;BME280;59446;52.192;4.628;2023-03-19T05:36:13;101209.97;;;17.49;54.88
71601;BME280;59446;52.192;4.628;2023-03-19T05:38:39;101210.91;;;17.48;54.89
71601;BME280;59446;52.192;4.628;2023-03-19T05:41:05;101219.72;;;17.47;55.27
71601;BME280;59446;52.192;4.628;2023-03-19T05:43:31;101219.72;;;17.47;55.03
71601;BME280;59446;52.192;4.628;2023-03-19T05:45:57;101220.63;;;17.46;55.22
71601;BME280;59446;52.192;4.628;2023-03-19T05:48:23;101226.81;;;17.45;55.05
71601;BME280;59446;52.192;4.628;2023-03-19T05:50:48;101224.16;;;17.46;54.55
71601;BME280;59446;52.192;4.628;2023-03-19T05:53:14;101230.19;;;17.48;54.65
71601;BME280;59446;52.192;4.628;2023-03-19T05:55:39;101227.56;;;17.48;54.87
71601;BME280;59446;52.192;4.628;2023-03-19T05:58:05;101233.94;;;17.43;55.13
71601;BME280;59446;52.192;4.628;2023-03-19T06:00:32;101230.53;;;17.41;55.20
71601;BME280;59446;52.192;4.628;2023-03-19T06:02:57;101239.28;;;17.41;55.05
71601;BME280;59446;52.192;4.628;2023-03-19T06:05:22;101241.94;;;17.41;55.02
71601;BME280;59446;52.192;4.628;2023-03-19T06:07:48;101241.06;;;17.41;55.17
71601;BME280;59446;52.192;4.628;2023-03-19T06:10:13;101237.69;;;17.39;55.04
71601;BME280;59446;52.192;4.628;2023-03-19T06:12:38;101238.53;;;17.39;54.98
71601;BME280;59446;52.192;4.628;2023-03-19T06:15:04;101241.94;;;17.41;55.04
71601;BME280;59446;52.192;4.628;2023-03-19T06:17:31;101242.94;;;17.39;55.09
71601;BME280;59446;52.192;4.628;2023-03-19T06:19:56;101242.94;;;17.39;54.84
71601;BME280;59446;52.192;4.628;2023-03-19T06:22:21;101242.16;;;17.37;55.13
71601;BME280;59446;52.192;4.628;2023-03-19T06:24:47;101244.88;;;17.35;54.92
71601;BME280;59446;52.192;4.628;2023-03-19T06:27:12;101251.84;;;17.36;54.63
71601;BME280;59446;52.192;4.628;2023-03-19T06:29:38;101245.72;;;17.36;55.14
71601;BME280;59446;52.192;4.628;2023-03-19T06:32:03;101250.69;;;17.42;55.12
71601;BME280;59446;52.192;4.628;2023-03-19T06:34:29;101264.94;;;17.38;55.02
71601;BME280;59446;52.192;4.628;2023-03-19T06:36:54;101270.19;;;17.38;55.06
71601;BME280;59446;52.192;4.628;2023-03-19T06:39:21;101269.34;;;17.37;55.01
71601;BME280;59446;52.192;4.628;2023-03-19T06:41:46;101271.91;;;17.39;54.85
71601;BME280;59446;52.192;4.628;2023-03-19T06:44:12;101272.91;;;17.36;54.86
71601;BME280;59446;52.192;4.628;2023-03-19T06:46:37;101282.44;;;17.39;55.05
71601;BME280;59446;52.192;4.628;2023-03-19T06:49:02;101285.22;;;17.36;54.76
71601;BME280;59446;52.192;4.628;2023-03-19T06:51:28;101286.91;;;17.37;55.15
71601;BME280;59446;52.192;4.628;2023-03-19T06:53:53;101287.06;;;17.34;55.19
71601;BME280;59446;52.192;4.628;2023-03-19T06:56:19;101295.81;;;17.34;55.03
71601;BME280;59446;52.192;4.628;2023-03-19T06:58:45;101295.75;;;17.36;55.00
71601;BME280;59446;52.192;4.628;2023-03-19T07:01:10;101296.59;;;17.36;54.60
71601;BME280;59446;52.192;4.628;2023-03-19T07:03:36;101302.72;;;17.37;54.84
71601;BME280;59446;52.192;4.628;2023-03-19T07:06:01;101301.09;;;17.34;54.94
71601;BME280;59446;52.192;4.628;2023-03-19T07:08:27;101306.34;;;17.34;54.82
71601;BME280;59446;52.192;4.628;2023-03-19T07:10:55;101302.72;;;17.37;54.84
71601;BME280;59446;52.192;4.628;2023-03-19T07:13:21;101310.69;;;17.35;55.00
71601;BME280;59446;52.192;4.628;2023-03-19T07:15:47;101310.78;;;17.34;54.95
71601;BME280;59446;52.192;4.628;2023-03-19T07:18:12;101310.78;;;17.34;55.17
71601;BME280;59446;52.192;4.628;2023-03-19T07:20:37;101305.44;;;17.35;54.83
71601;BME280;59446;52.192;4.628;2023-03-19T07:23:03;101309.84;;;17.35;55.05
71601;BME280;59446;52.192;4.628;2023-03-19T07:25:28;101311.69;;;17.33;54.80
71601;BME280;59446;52.192;4.628;2023-03-19T07:27:54;101314.19;;;17.36;54.84
71601;BME280;59446;52.192;4.628;2023-03-19T07:30:19;101321.28;;;17.34;54.69
71601;BME280;59446;52.192;4.628;2023-03-19T07:32:44;101324.88;;;17.33;54.76
71601;BME280;59446;52.192;4.628;2023-03-19T07:35:10;101325.63;;;17.35;54.96
71601;BME280;59446;52.192;4.628;2023-03-19T07:37:35;101328.97;;;17.38;54.52
71601;BME280;59446;52.192;4.628;2023-03-19T07:40:01;101334.47;;;17.34;54.74
71601;BME280;59446;52.192;4.628;2023-03-19T07:42:27;101337.63;;;17.40;54.65
71601;BME280;59446;52.192;4.628;2023-03-19T07:44:52;101322.84;;;17.38;54.59
71601;BME280;59446;52.192;4.628;2023-03-19T07:47:18;101328.28;;;17.35;54.97
71601;BME280;59446;52.192;4.628;2023-03-19T07:49:43;101333.38;;;17.38;55.39
71601;BME280;59446;52.192;4.628;2023-03-19T07:52:09;101336.09;;;17.36;55.27
71601;BME280;59446;52.192;4.628;2023-03-19T07:54:35;101332.38;;;17.40;54.68
71601;BME280;59446;52.192;4.628;2023-03-19T07:57:00;101336.09;;;17.36;55.31
71601;BME280;59446;52.192;4.628;2023-03-19T07:59:26;101338.56;;;17.39;55.00
71601;BME280;59446;52.192;4.628;2023-03-19T08:01:51;101345.38;;;17.43;55.56
71601;BME280;59446;52.192;4.628;2023-03-19T08:04:16;101346.22;;;17.44;54.92
71601;BME280;59446;52.192;4.628;2023-03-19T08:06:42;101345.63;;;17.39;55.14
71601;BME280;59446;52.192;4.628;2023-03-19T08:09:07;101352.13;;;17.32;55.43
71601;BME280;59446;52.192;4.628;2023-03-19T08:11:33;101352.41;;;17.25;55.67
71601;BME280;59446;52.192;4.628;2023-03-19T08:13:58;101357.69;;;17.25;55.50
71601;BME280;59446;52.192;4.628;2023-03-19T08:16:24;101360.09;;;17.30;55.14
71601;BME280;59446;52.192;4.628;2023-03-19T08:18:50;101363.41;;;17.34;55.22
71601;BME280;59446;52.192;4.628;2023-03-19T08:21:16;101368.13;;;17.27;55.20
71601;BME280;59446;52.192;4.628;2023-03-19T08:23:41;101367.34;;;17.25;55.67
71601;BME280;59446;52.192;4.628;2023-03-19T08:26:07;101377.81;;;17.26;55.41
71601;BME280;59446;52.192;4.628;2023-03-19T08:28:32;101383.06;;;17.26;55.22
71601;BME280;59446;52.192;4.628;2023-03-19T08:31:08;101382.28;;;17.24;55.37
71601;BME280;59446;52.192;4.628;2023-03-19T08:33:34;101380.63;;;17.22;55.70
71601;BME280;59446;52.192;4.628;2023-03-19T08:36:11;101385.78;;;17.25;55.30
71601;BME280;59446;52.192;4.628;2023-03-19T08:38:37;101389.25;;;17.25;55.31
71601;BME280;59446;52.192;4.628;2023-03-19T08:41:04;101387.50;;;17.26;55.39
71601;BME280;59446;52.192;4.628;2023-03-19T08:43:31;101396.16;;;17.28;55.55
71601;BME280;59446;52.192;4.628;2023-03-19T08:45:57;101403.41;;;17.23;55.15
71601;BME280;59446;52.192;4.628;2023-03-19T08:48:23;101406.09;;;17.21;55.23
71601;BME280;59446;52.192;4.628;2023-03-19T08:50:56;101409.50;;;17.23;54.95
71601;BME280;59446;52.192;4.628;2023-03-19T08:53:22;101405.25;;;17.21;55.09
71601;BME280;59446;52.192;4.628;2023-03-19T08:55:56;101407.09;;;17.19;55.16
71601;BME280;59446;52.192;4.628;2023-03-19T08:58:22;101415.00;;;17.19;54.83
71601;BME280;59446;52.192;4.628;2023-03-19T09:00:49;101413.38;;;17.16;54.75
71601;BME280;59446;52.192;4.628;2023-03-19T09:03:15;101413.06;;;17.22;54.79
71601;BME280;59446;52.192;4.628;2023-03-19T09:05:41;101413.59;;;17.31;54.34
71601;BME280;59446;52.192;4.628;2023-03-19T09:08:07;101412.50;;;17.35;54.63
71601;BME280;59446;52.192;4.628;2023-03-19T09:10:33;101422.09;;;17.36;54.60
71601;BME280;59446;52.192;4.628;2023-03-19T09:12:59;101427.31;;;17.37;54.51
71601;BME280;59446;52.192;4.628;2023-03-19T09:15:24;101429.84;;;17.39;54.34
71601;BME280;59446;52.192;4.628;2023-03-19T09:17:50;101428.06;;;17.39;54.71
71601;BME280;59446;52.192;4.628;2023-03-19T09:20:16;101425.38;;;17.41;54.65
71601;BME280;59446;52.192;4.628;2023-03-19T09:22:41;101428.84;;;17.41;54.67
71601;BME280;59446;52.192;4.628;2023-03-19T09:25:07;101429.78;;;17.40;54.67
71601;BME280;59446;52.192;4.628;2023-03-19T09:27:33;101428.00;;;17.41;54.72
71601;BME280;59446;52.192;4.628;2023-03-19T09:29:58;101428.78;;;17.43;55.03
71601;BME280;59446;52.192;4.628;2023-03-19T09:32:23;101432.16;;;17.46;54.84
71601;BME280;59446;52.192;4.628;2023-03-19T09:34:49;101431.16;;;17.49;54.89
71601;BME280;59446;52.192;4.628;2023-03-19T09:37:14;101441.78;;;17.46;55.19
71601;BME280;59446;52.192;4.628;2023-03-19T09:39:40;101441.69;;;17.49;54.77
71601;BME280;59446;52.192;4.628;2023-03-19T09:45:00;101445.94;;;17.51;54.98
71601;BME280;59446;52.192;4.628;2023-03-19T09:47:31;101451.88;;;17.56;54.84
71601;BME280;59446;52.192;4.628;2023-03-19T09:49:59;101462.31;;;17.58;55.15
71601;BME280;59446;52.192;4.628;2023-03-19T09:52:41;101455.19;;;17.60;55.70
71601;BME280;59446;52.192;4.628;2023-03-19T09:57:56;101462.81;;;17.66;56.97
71601;BME280;59446;52.192;4.628;2023-03-19T10:00:41;101467.13;;;17.67;56.81
71601;BME280;59446;52.192;4.628;2023-03-19T10:06:27;101472.75;;;17.78;56.40
71601;BME280;59446;52.192;4.628;2023-03-19T10:12:05;101473.38;;;17.83;56.05
71601;BME280;59446;52.192;4.628;2023-03-19T10:17:20;101472.53;;;17.83;56.06
71601;BME280;59446;52.192;4.628;2023-03-19T10:20:04;101477.72;;;17.84;55.92
71601;BME280;59446;52.192;4.628;2023-03-19T10:22:43;101478.84;;;17.98;55.70
71601;BME280;59446;52.192;4.628;2023-03-19T10:25:19;101489.94;;;18.04;55.42
71601;BME280;59446;52.192;4.628;2023-03-19T10:27:51;101495.91;;;18.08;55.37
71601;BME280;59446;52.192;4.628;2023-03-19T10:30:18;101497.69;;;18.07;55.34
71601;BME280;59446;52.192;4.628;2023-03-19T10:32:51;101492.50;;;18.06;55.51
71601;BME280;59446;52.192;4.628;2023-03-19T10:35:22;101493.41;;;18.05;55.61
71601;BME280;59446;52.192;4.628;2023-03-19T10:37:49;101493.34;;;18.06;55.33
71601;BME280;59446;52.192;4.628;2023-03-19T10:40:41;101498.19;;;18.15;55.11
71601;BME280;59446;52.192;4.628;2023-03-19T10:43:15;101497.00;;;18.21;55.23
71601;BME280;59446;52.192;4.628;2023-03-19T10:45:42;101504.22;;;18.17;55.30
71601;BME280;59446;52.192;4.628;2023-03-19T10:48:13;101491.75;;;18.21;55.42
71601;BME280;59446;52.192;4.628;2023-03-19T10:50:55;101491.88;;;18.35;54.64
71601;BME280;59446;52.192;4.628;2023-03-19T10:53:38;101495.03;;;18.43;54.50
71601;BME280;59446;52.192;4.628;2023-03-19T10:56:17;101495.72;;;18.47;54.15
71601;BME280;59446;52.192;4.628;2023-03-19T10:58:56;101505.25;;;18.49;53.81
71601;BME280;59446;52.192;4.628;2023-03-19T11:01:26;101503.25;;;18.55;53.65
71601;BME280;59446;52.192;4.628;2023-03-19T11:03:56;101505.78;;;18.56;53.55
71601;BME280;59446;52.192;4.628;2023-03-19T11:06:32;101509.00;;;18.63;53.69
71601;BME280;59446;52.192;4.628;2023-03-19T11:11:48;101504.25;;;18.69;53.07
71601;BME280;59446;52.192;4.628;2023-03-19T11:14:37;101509.44;;;18.71;52.86
71601;BME280;59446;52.192;4.628;2023-03-19T11:17:35;101504.00;;;18.74;52.53
71601;BME280;59446;52.192;4.628;2023-03-19T11:22:42;101508.09;;;18.79;52.74
71601;BME280;59446;52.192;4.628;2023-03-19T11:25:15;101503.84;;;18.77;52.88
71601;BME280;59446;52.192;4.628;2023-03-19T11:28:07;101515.94;;;18.81;52.41
71601;BME280;59446;52.192;4.628;2023-03-19T11:30:55;101520.44;;;18.79;53.13
71601;BME280;59446;52.192;4.628;2023-03-19T11:36:18;101517.38;;;19.04;52.29
71601;BME280;59446;52.192;4.628;2023-03-19T11:47:14;101527.88;;;19.21;52.07
71601;BME280;59446;52.192;4.628;2023-03-19T11:55:34;101530.16;;;19.29;51.78
71601;BME280;59446;52.192;4.628;2023-03-19T12:00:52;101530.00;;;19.32;51.64
71601;BME280;59446;52.192;4.628;2023-03-19T12:06:27;101539.63;;;19.33;51.76
71601;BME280;59446;52.192;4.628;2023-03-19T12:11:52;101550.63;;;19.41;51.34
71601;BME280;59446;52.192;4.628;2023-03-19T12:15:00;101552.31;;;19.42;51.24
71601;BME280;59446;52.192;4.628;2023-03-19T12:17:48;101543.72;;;19.38;51.39
71601;BME280;59446;52.192;4.628;2023-03-19T12:20:54;101547.22;;;19.39;51.52
71601;BME280;59446;52.192;4.628;2023-03-19T12:26:04;101547.81;;;19.44;51.53
71601;BME280;59446;52.192;4.628;2023-03-19T12:28:46;101551.38;;;19.43;51.29
71601;BME280;59446;52.192;4.628;2023-03-19T12:34:30;101538.00;;;19.46;51.00
71601;BME280;59446;52.192;4.628;2023-03-19T12:37:17;101544.16;;;19.47;51.65
71601;BME280;59446;52.192;4.628;2023-03-19T12:40:07;101549.44;;;19.47;51.57
71601;BME280;59446;52.192;4.628;2023-03-19T12:42:40;101552.06;;;19.47;51.35
71601;BME280;59446;52.192;4.628;2023-03-19T12:45:22;101559.13;;;19.46;51.46
71601;BME280;59446;52.192;4.628;2023-03-19T12:47:54;101553.69;;;19.49;51.24
71601;BME280;59446;52.192;4.628;2023-03-19T12:50:23;101564.19;;;19.51;51.32
71601;BME280;59446;52.192;4.628;2023-03-19T12:52:52;101568.19;;;19.42;51.07
71601;BME280;59446;52.192;4.628;2023-03-19T12:55:41;101558.72;;;19.38;51.31
71601;BME280;59446;52.192;4.628;2023-03-19T13:01:07;101563.22;;;19.36;51.73
71601;BME280;59446;52.192;4.628;2023-03-19T13:06:30;101578.06;;;19.38;51.64
71601;BME280;59446;52.192;4.628;2023-03-19T13:11:51;101578.13;;;19.37;51.79
71601;BME280;59446;52.192;4.628;2023-03-19T13:14:47;101570.22;;;19.37;51.33
71601;BME280;59446;52.192;4.628;2023-03-19T13:20:31;101586.16;;;19.35;51.37
71601;BME280;59446;52.192;4.628;2023-03-19T13:23:02;101585.53;;;19.30;51.84
71601;BME280;59446;52.192;4.628;2023-03-19T13:25:37;101580.94;;;19.34;51.54
71601;BME280;59446;52.192;4.628;2023-03-19T13:28:08;101570.22;;;19.37;51.42
71601;BME280;59446;52.192;4.628;2023-03-19T13:30:35;101570.03;;;19.40;51.50
71601;BME280;59446;52.192;4.628;2023-03-19T13:33:05;101567.22;;;19.43;51.60
71601;BME280;59446;52.192;4.628;2023-03-19T13:35:39;101565.19;;;19.48;51.41
71601;BME280;59446;52.192;4.628;2023-03-19T13:46:25;101565.91;;;19.67;50.82
71601;BME280;59446;52.192;4.628;2023-03-19T13:48:52;101577.41;;;19.66;51.30
71601;BME280;59446;52.192;4.628;2023-03-19T13:51:22;101583.63;;;19.65;51.23
71601;BME280;59446;52.192;4.628;2023-03-19T13:56:16;101582.78;;;19.65;51.45
71601;BME280;59446;52.192;4.628;2023-03-19T14:01:41;101594.53;;;19.59;51.46
71601;BME280;59446;52.192;4.628;2023-03-19T14:04:18;101602.81;;;19.53;51.94
71601;BME280;59446;52.192;4.628;2023-03-19T14:06:47;101597.44;;;19.55;51.88
71601;BME280;59446;52.192;4.628;2023-03-19T14:09:35;101605.38;;;19.55;51.83
71601;BME280;59446;52.192;4.628;2023-03-19T14:12:09;101617.72;;;19.54;51.92
71601;BME280;59446;52.192;4.628;2023-03-19T14:14:44;101626.50;;;19.55;51.75